Time;durP1;ratioP1;P1;durP2;ratioP2;P2;SDS_P1;SDS_P2;PMS_P1;PMS_P2;Temp;Humidity;BMP_temperature;BMP_pressure;BME280_temperature;BME280_humidity;BME280_pressure;Samples;Min_cycle;Max_cycle;Signal;HPM_P1;HPM_P2
2022/01/24 00:00:20;;;;;;;21.40;4.82;;;;;;;6.87;100.00;102035.16;5115744;27;20047;-88
2022/01/24 00:02:47;;;;;;;11.05;4.13;;;;;;;6.73;100.00;102045.59;5097022;28;20078;-89
2022/01/24 00:05:16;;;;;;;14.63;3.97;;;;;;;6.92;100.00;102057.72;5116403;28;20079;-89
2022/01/24 00:07:43;;;;;;;13.90;3.88;;;;;;;6.74;100.00;102026.53;5097739;28;20052;-89
2022/01/24 00:10:16;;;;;;;12.60;3.22;;;;;;;6.66;100.00;102010.91;5113261;27;20035;-89
2022/01/24 00:17:51;;;;;;;10.75;3.47;;;;;;;7.36;100.00;102072.41;5152535;27;20401;-89
2022/01/24 00:28:29;;;;;;;12.65;3.70;;;;;;;7.11;100.00;102084.63;5135633;27;20046;-88
2022/01/24 00:30:56;;;;;;;14.13;4.43;;;;;;;7.07;100.00;102075.09;5116429;27;20065;-89
2022/01/24 00:33:24;;;;;;;12.18;3.38;;;;;;;7.19;100.00;102051.63;5117275;27;20093;-89
2022/01/24 00:35:50;;;;;;;12.80;3.17;;;;;;;7.09;100.00;102065.53;5113958;28;20557;-88
2022/01/24 00:38:18;;;;;;;14.27;4.82;;;;;;;7.20;100.00;102087.19;5118086;27;20039;-89
2022/01/24 00:40:47;;;;;;;14.73;3.83;;;;;;;7.14;100.00;102081.16;5116117;27;20039;-89
2022/01/24 00:43:29;;;;;;;10.18;3.53;;;;;;;7.26;100.00;102080.25;5113237;27;20131;-89
2022/01/24 00:46:06;;;;;;;13.63;3.65;;;;;;;7.00;100.00;102060.34;5121827;27;20137;-89
2022/01/24 00:56:15;;;;;;;8.98;3.20;;;;;;;7.16;100.00;102082.88;5115226;27;20059;-89
2022/01/24 00:58:42;;;;;;;8.02;2.88;;;;;;;6.74;100.00;102016.97;5115726;27;20393;-89
2022/01/24 01:01:09;;;;;;;11.77;4.38;;;;;;;7.04;100.00;102072.47;5115518;27;20046;-89
2022/01/24 01:03:36;;;;;;;12.60;3.65;;;;;;;6.78;100.00;102075.09;5134273;27;20065;-88
2022/01/24 01:06:07;;;;;;;10.98;3.63;;;;;;;6.89;100.00;102055.16;5117087;27;20051;-88
2022/01/24 01:19:41;;;;;;;11.80;3.78;;;;;;;6.83;100.00;102097.69;5134389;27;20070;-89
2022/01/24 01:22:08;;;;;;;13.43;3.50;;;;;;;6.59;100.00;102079.47;5115530;27;20062;-89
2022/01/24 01:24:41;;;;;;;12.50;3.67;;;;;;;6.70;100.00;102106.34;5115943;27;20058;-89
2022/01/24 01:27:22;;;;;;;11.60;3.92;;;;;;;6.59;100.00;102105.47;5116742;27;20473;-89
2022/01/24 01:32:43;;;;;;;16.23;6.05;;;;;;;6.44;100.00;102085.50;5122500;27;20047;-88
2022/01/24 01:56:40;;;;;;;12.38;3.67;;;;;;;7.01;100.00;102098.50;5134086;27;20408;-89
2022/01/24 01:59:07;;;;;;;10.80;3.95;;;;;;;6.88;100.00;102109.81;5115724;28;20039;-88
2022/01/24 02:01:34;;;;;;;12.18;4.05;;;;;;;6.45;100.00;102090.72;5115415;28;20055;-89
2022/01/24 02:04:03;;;;;;;14.00;3.35;;;;;;;6.73;100.00;102100.25;5115523;28;20054;-88
2022/01/24 02:06:31;;;;;;;11.13;3.80;;;;;;;6.74;100.00;102096.81;5115925;28;20047;-89
2022/01/24 02:09:11;;;;;;;13.40;4.43;;;;;;;6.75;100.00;102088.13;5133536;28;20044;-89
2022/01/24 02:11:38;;;;;;;19.48;3.90;;;;;;;6.82;100.00;102090.72;5101913;28;20054;-89
2022/01/24 02:14:16;;;;;;;15.02;3.65;;;;;;;6.67;100.00;102088.13;5100909;28;20055;-89
2022/01/24 02:16:52;;;;;;;9.05;2.78;;;;;;;6.96;100.00;102105.50;5117986;28;20052;-88
2022/01/24 02:19:32;;;;;;;12.70;2.97;;;;;;;7.01;100.00;102103.72;5113482;28;20420;-88
2022/01/24 02:24:38;;;;;;;11.55;3.58;;;;;;;6.80;100.00;102089.88;5137831;27;20058;-90
2022/01/24 02:27:06;;;;;;;18.45;4.53;;;;;;;6.39;100.00;102077.72;5136534;27;20058;-89
2022/01/24 02:29:50;;;;;;;12.20;3.72;;;;;;;6.36;100.00;102071.63;5136738;27;20046;-90
2022/01/24 02:32:16;;;;;;;13.30;3.17;;;;;;;6.86;100.00;102073.38;5099014;28;20055;-89
2022/01/24 02:34:46;;;;;;;12.18;3.22;;;;;;;6.64;100.00;102062.13;5136903;27;20410;-89
2022/01/24 02:37:17;;;;;;;12.05;2.92;;;;;;;6.59;100.00;102079.47;5119350;27;20051;-89
2022/01/24 02:51:04;;;;;;;16.55;3.88;;;;;;;6.66;100.00;102115.03;5131894;27;20049;-89
2022/01/24 02:53:32;;;;;;;12.38;4.28;;;;;;;6.60;100.00;102094.19;5118424;27;20043;-88
2022/01/24 02:56:00;;;;;;;11.55;3.78;;;;;;;6.73;100.00;102098.53;5137783;27;20051;-89
2022/01/24 02:58:27;;;;;;;12.20;3.70;;;;;;;6.83;100.00;102099.41;5117835;27;20050;-89
2022/01/24 03:00:55;;;;;;;17.25;4.78;;;;;;;6.67;100.00;102116.75;5134761;27;20051;-89
2022/01/24 03:03:23;;;;;;;13.35;4.43;;;;;;;6.63;100.00;102113.28;5136564;27;20043;-90
2022/01/24 03:05:50;;;;;;;11.90;3.85;;;;;;;6.80;100.00;102107.22;5118699;27;20058;-89
2022/01/24 03:08:16;;;;;;;11.70;3.55;;;;;;;6.91;100.00;102089.00;5118786;27;20472;-89
2022/01/24 03:10:45;;;;;;;13.70;3.63;;;;;;;6.93;100.00;102088.13;5117816;27;20492;-89
2022/01/24 03:15:48;;;;;;;10.63;3.90;;;;;;;6.58;100.00;102091.59;5136746;27;20130;-88
2022/01/24 03:18:15;;;;;;;12.15;3.50;;;;;;;7.07;100.00;102105.47;5118848;27;20051;-89
2022/01/24 03:20:43;;;;;;;10.77;3.75;;;;;;;7.08;100.00;102096.78;5117727;27;20736;-88
2022/01/24 03:23:16;;;;;;;11.13;3.95;;;;;;;6.88;100.00;102095.06;5136812;27;20058;-88
2022/01/24 03:25:43;;;;;;;11.43;4.00;;;;;;;7.00;100.00;102102.00;5136939;27;20491;-88
2022/01/24 03:28:10;;;;;;;13.30;5.07;;;;;;;6.68;100.00;102089.88;5118664;27;20059;-88
2022/01/24 03:30:39;;;;;;;13.00;3.97;;;;;;;6.71;100.00;102078.56;5128174;27;20050;-88
2022/01/24 03:33:07;;;;;;;18.70;4.50;;;;;;;6.40;100.00;102062.97;5113987;27;20047;-88
2022/01/24 03:35:35;;;;;;;12.93;4.50;;;;;;;6.76;100.00;102085.50;5136463;27;20047;-88
2022/01/24 03:38:03;;;;;;;13.65;4.30;;;;;;;6.90;100.00;102108.94;5135756;27;20134;-88
2022/01/24 03:40:30;;;;;;;16.90;4.00;;;;;;;6.87;100.00;102113.28;5134856;27;20047;-88
2022/01/24 03:42:58;;;;;;;17.05;6.00;;;;;;;7.04;100.00;102107.19;5135758;27;20047;-89
2022/01/24 03:45:41;;;;;;;14.07;4.22;;;;;;;7.01;100.00;102107.22;5118053;27;20047;-89
2022/01/24 03:48:22;;;;;;;15.05;3.17;;;;;;;7.20;100.00;102094.16;5136626;27;20134;-89
2022/01/24 03:50:50;;;;;;;10.38;3.63;;;;;;;6.95;100.00;102094.19;5105891;27;20043;-90
2022/01/24 03:53:17;;;;;;;12.18;4.82;;;;;;;7.14;100.00;102083.75;5132437;27;20043;-89
2022/01/24 03:55:43;;;;;;;17.60;4.15;;;;;;;7.18;100.00;102082.88;5131945;27;20046;-88
2022/01/24 03:58:11;;;;;;;16.63;5.85;;;;;;;6.91;100.00;102063.81;5116732;27;20047;-89
2022/01/24 04:00:37;;;;;;;18.85;5.35;;;;;;;7.01;100.00;102081.19;5119664;27;20039;-89
2022/01/24 04:03:04;;;;;;;13.77;5.45;;;;;;;7.04;100.00;102086.34;5118747;27;20061;-89
2022/01/24 04:05:31;;;;;;;12.70;4.40;;;;;;;7.36;100.00;102089.78;5118711;27;20450;-89
2022/01/24 04:07:58;;;;;;;13.85;5.15;;;;;;;7.11;100.00;102091.56;5117984;27;20043;-89
2022/01/24 04:10:25;;;;;;;15.77;4.43;;;;;;;7.36;100.00;102088.03;5116456;27;20047;-89
2022/01/24 04:12:53;;;;;;;16.45;6.50;;;;;;;7.09;100.00;102086.38;5118258;27;20047;-89
2022/01/24 04:16:22;;;;;;;17.58;4.93;;;;;;;7.35;100.00;102093.28;5130972;27;20047;-89
2022/01/24 04:18:41;;;;;;;17.10;4.95;;;;;;;7.34;100.00;102081.09;5150584;27;20056;-89
2022/01/24 04:23:50;;;;;;;16.02;4.10;;;;;;;6.97;100.00;102055.13;5124560;27;20429;-88
2022/01/24 04:26:17;;;;;;;16.67;4.88;;;;;;;6.96;100.00;102063.81;5134668;27;20062;-89
2022/01/24 04:28:44;;;;;;;18.20;4.82;;;;;;;7.01;100.00;102075.06;5135743;27;20054;-89
2022/01/24 04:31:11;;;;;;;12.57;4.15;;;;;;;7.11;100.00;102097.63;5135344;27;20047;-90
2022/01/24 04:33:38;;;;;;;15.27;4.25;;;;;;;7.36;100.00;102095.00;5134160;27;20054;-90
2022/01/24 04:36:05;;;;;;;10.57;4.25;;;;;;;7.36;100.00;102093.25;5127775;27;20050;-89
2022/01/24 04:38:32;;;;;;;8.80;2.88;;;;;;;7.25;100.00;102079.38;5116819;27;20039;-89
2022/01/24 04:41:03;;;;;;;12.68;4.93;;;;;;;7.14;100.00;102112.41;5134933;27;20073;-89
2022/01/24 04:51:51;;;;;;;15.70;4.70;;;;;;;6.77;100.00;102058.63;5123439;27;20130;-89
2022/01/24 04:54:40;;;;;;;;;;;;;;;7.20;100.00;102099.38;5133944;27;20043;-88
2022/01/24 04:57:11;;;;;;;19.25;6.25;;;;;;;6.73;100.00;102082.03;5117257;27;20393;-87
2022/01/24 04:59:39;;;;;;;14.27;4.78;;;;;;;7.16;100.00;102118.47;5103100;27;20389;-89
2022/01/24 05:02:07;;;;;;;17.23;4.60;;;;;;;7.20;100.00;102115.00;5111160;27;20054;-88
2022/01/24 05:04:36;;;;;;;11.95;3.70;;;;;;;7.23;100.00;102115.84;5134392;27;20149;-88
2022/01/24 05:07:04;;;;;;;9.95;3.47;;;;;;;7.16;100.00;102116.75;5117136;27;20050;-88
2022/01/24 05:09:38;;;;;;;12.75;3.85;;;;;;;7.05;100.00;102108.09;5116644;27;20047;-88
2022/01/24 05:12:14;;;;;;;11.02;3.60;;;;;;;7.00;100.00;102092.44;5115517;27;20043;-89
2022/01/24 05:25:42;;;;;;;12.48;4.65;;;;;;;6.85;100.00;102082.03;5134488;27;20046;-89
2022/01/24 05:28:08;;;;;;;20.42;4.63;;;;;;;6.70;100.00;102103.75;5116034;27;20047;-88
2022/01/24 05:30:35;;;;;;;14.52;5.82;;;;;;;6.78;100.00;102085.50;5113097;27;20039;-89
2022/01/24 05:33:02;;;;;;;13.52;4.75;;;;;;;6.87;100.00;102103.75;5096563;27;20054;-89
2022/01/24 05:35:29;;;;;;;10.88;4.20;;;;;;;7.19;100.00;102113.28;5120753;27;20055;-88
2022/01/24 05:37:55;;;;;;;12.90;4.00;;;;;;;6.85;100.00;102087.25;5116287;27;20069;-89
2022/01/24 05:40:22;;;;;;;15.32;4.93;;;;;;;7.04;100.00;102111.53;5128644;27;20048;-89
2022/01/24 05:42:49;;;;;;;11.13;4.78;;;;;;;6.94;100.00;102108.09;5113941;28;20392;-89
2022/01/24 05:45:16;;;;;;;16.42;4.10;;;;;;;6.95;100.00;102102.00;5097823;28;20055;-89
2022/01/24 05:47:43;;;;;;;14.65;4.43;;;;;;;6.99;100.00;102110.66;5112484;28;20047;-89
2022/01/24 05:50:10;;;;;;;8.50;3.25;;;;;;;6.94;100.00;102110.69;5095344;27;20043;-89
2022/01/24 05:52:37;;;;;;;15.35;4.30;;;;;;;7.00;100.00;102121.09;5108666;27;20396;-89
2022/01/24 05:55:05;;;;;;;16.75;4.38;;;;;;;6.88;100.00;102139.31;5116292;27;20058;-89
2022/01/24 05:57:32;;;;;;;18.10;4.22;;;;;;;6.84;100.00;102128.03;5116165;27;20042;-89
2022/01/24 05:59:59;;;;;;;10.00;3.17;;;;;;;6.98;100.00;102132.41;5133004;27;20046;-89
2022/01/24 06:02:26;;;;;;;14.77;3.95;;;;;;;6.86;100.00;102148.00;5111410;28;20113;-89
2022/01/24 06:04:53;;;;;;;11.52;4.28;;;;;;;6.92;100.00;102148.00;5128070;27;20407;-88
2022/01/24 06:07:20;;;;;;;13.27;5.07;;;;;;;6.82;100.00;102136.72;5116014;28;20059;-89
2022/01/24 06:09:47;;;;;;;13.60;4.47;;;;;;;6.78;100.00;102138.47;5115710;28;20441;-88
2022/01/24 06:12:14;;;;;;;11.77;4.07;;;;;;;6.93;100.00;102116.75;5095223;28;20047;-89
2022/01/24 06:14:40;;;;;;;9.52;3.42;;;;;;;6.73;100.00;102121.97;5095217;28;20051;-89
2022/01/24 06:17:08;;;;;;;10.95;3.10;;;;;;;6.71;100.00;102131.53;5094886;28;20044;-89
2022/01/24 06:19:34;;;;;;;9.45;2.97;;;;;;;6.72;100.00;102138.44;5114315;28;20047;-90
2022/01/24 06:22:01;;;;;;;11.43;3.40;;;;;;;6.66;100.00;102125.44;5107173;28;20056;-90
2022/01/24 06:24:28;;;;;;;9.70;3.28;;;;;;;6.63;100.00;102149.72;5105620;28;20061;-88
2022/01/24 06:27:11;;;;;;;18.02;3.90;;;;;;;6.61;100.00;102140.19;5110752;28;20050;-90
2022/01/24 06:29:38;;;;;;;12.93;4.75;;;;;;;6.56;100.00;102144.50;5106217;28;20047;-88
2022/01/24 06:32:05;;;;;;;10.82;3.47;;;;;;;6.35;100.00;102140.13;5115742;28;20050;-88
2022/01/24 06:34:32;;;;;;;11.80;3.80;;;;;;;6.83;100.00;102159.28;5124061;28;20409;-89
2022/01/24 06:36:59;;;;;;;11.10;3.88;;;;;;;6.80;100.00;102159.28;5122049;28;20050;-88
2022/01/24 06:39:26;;;;;;;9.75;3.88;;;;;;;6.78;100.00;102167.09;5125880;28;20051;-87
2022/01/24 06:42:07;;;;;;;25.63;8.13;;;;;;;6.69;100.00;102177.47;5102825;28;20085;-86
2022/01/24 06:44:34;;;;;;;17.90;4.88;;;;;;;6.87;100.00;102175.78;5123705;28;20382;-87
2022/01/24 06:47:00;;;;;;;10.32;3.55;;;;;;;6.95;100.00;102198.34;5123381;28;20054;-87
2022/01/24 06:49:27;;;;;;;8.60;3.20;;;;;;;6.69;100.00;102174.00;5101790;28;20054;-86
2022/01/24 06:51:54;;;;;;;9.60;3.00;;;;;;;6.51;100.00;102147.09;5108390;28;20051;-87
2022/01/24 06:54:21;;;;;;;8.27;2.67;;;;;;;6.62;100.00;102178.34;5111061;28;20820;-85
2022/01/24 06:56:47;;;;;;;11.18;3.53;;;;;;;6.50;100.00;102173.09;5126483;27;20047;-87
2022/01/24 06:59:14;;;;;;;11.48;4.57;;;;;;;6.53;100.00;102183.53;5117160;27;20042;-86
2022/01/24 07:01:41;;;;;;;10.40;3.50;;;;;;;6.53;100.00;102186.13;5116353;27;20049;-88
2022/01/24 07:04:08;;;;;;;9.82;3.47;;;;;;;6.54;100.00;102196.53;5113826;27;20408;-87
2022/01/24 07:06:35;;;;;;;20.52;5.85;;;;;;;6.31;100.00;102191.28;5126585;27;20044;-87
2022/01/24 07:09:03;;;;;;;14.60;4.13;;;;;;;6.50;100.00;102196.53;5126761;27;20047;-87
2022/01/24 07:11:30;;;;;;;10.82;3.60;;;;;;;6.79;100.00;102217.44;5113145;28;20686;-87
2022/01/24 07:13:57;;;;;;;14.82;3.90;;;;;;;6.67;100.00;102193.97;5130979;27;20031;-87
2022/01/24 07:16:35;;;;;;;12.02;4.25;;;;;;;6.33;100.00;102154.88;5102522;28;20781;-86
2022/01/24 07:19:03;;;;;;;16.35;4.30;;;;;;;6.73;100.00;102187.06;5125563;27;20127;-87
2022/01/24 07:21:30;;;;;;;17.33;5.18;;;;;;;6.46;100.00;102170.50;5108425;27;20105;-86
2022/01/24 07:23:57;;;;;;;15.43;6.07;;;;;;;6.36;100.00;102134.94;5108756;27;20055;-86
2022/01/24 07:26:24;;;;;;;15.70;5.03;;;;;;;6.60;100.00;102188.75;5116071;27;20070;-85
2022/01/24 07:28:50;;;;;;;17.70;5.57;;;;;;;6.75;100.00;102205.28;5124035;27;20050;-86
2022/01/24 07:31:18;;;;;;;11.48;4.95;;;;;;;6.74;100.00;102216.53;5127487;27;20043;-87
2022/01/24 07:33:45;;;;;;;12.48;4.28;;;;;;;6.89;100.00;102218.28;5125945;27;20416;-87
2022/01/24 07:36:11;;;;;;;13.75;5.25;;;;;;;6.85;100.00;102230.44;5110982;27;20044;-87
2022/01/24 07:38:38;;;;;;;13.88;5.00;;;;;;;7.02;100.00;102207.03;5108970;27;20043;-87
2022/01/24 07:41:06;;;;;;;17.67;4.97;;;;;;;6.75;100.00;102203.53;5111315;27;20782;-86
2022/01/24 07:43:33;;;;;;;14.63;4.90;;;;;;;6.63;100.00;102187.88;5123942;27;20066;-86
2022/01/24 07:46:00;;;;;;;10.80;3.95;;;;;;;6.90;100.00;102201.81;5125309;27;20073;-87
2022/01/24 07:48:27;;;;;;;14.38;4.75;;;;;;;6.92;100.00;102211.34;5108786;27;20047;-87
2022/01/24 07:50:54;;;;;;;14.50;6.10;;;;;;;6.94;100.00;102211.34;5108400;27;20047;-87
2022/01/24 07:53:23;;;;;;;16.77;5.95;;;;;;;6.84;100.00;102211.34;5106956;27;20587;-86
2022/01/24 07:56:11;;;;;;;21.50;5.00;;;;;;;6.74;100.00;102222.59;5116706;27;20069;-88
2022/01/24 07:58:38;;;;;;;17.52;5.60;;;;;;;6.71;100.00;102214.81;5131390;27;20043;-87
2022/01/24 08:01:05;;;;;;;11.38;4.72;;;;;;;6.86;100.00;102206.16;5114050;27;20057;-87
2022/01/24 08:03:32;;;;;;;12.32;5.10;;;;;;;7.02;100.00;102212.25;5112705;27;20039;-91
2022/01/24 08:05:59;;;;;;;12.88;5.28;;;;;;;6.85;100.00;102220.03;5136088;27;20047;-85
2022/01/24 08:08:25;;;;;;;18.27;6.63;;;;;;;6.79;100.00;102220.03;5115748;28;20063;-86
2022/01/24 08:10:52;;;;;;;18.75;6.13;;;;;;;6.78;100.00;102226.97;5134401;27;20054;-86
2022/01/24 08:13:19;;;;;;;16.00;6.03;;;;;;;6.71;100.00;102196.59;5134789;27;20047;-86
2022/01/24 08:15:46;;;;;;;13.32;4.22;;;;;;;6.94;100.00;102209.66;5134931;27;20051;-86
2022/01/24 08:18:14;;;;;;;13.57;4.65;;;;;;;6.91;100.00;102221.78;5125797;27;20134;-87
2022/01/24 08:20:41;;;;;;;13.68;4.40;;;;;;;7.19;100.00;102228.75;5103276;27;20044;-85
2022/01/24 08:23:10;;;;;;;16.48;5.35;;;;;;;7.10;100.00;102233.97;5110664;28;20058;-86
2022/01/24 08:25:37;;;;;;;13.18;4.25;;;;;;;7.03;100.00;102246.09;5113999;28;20087;-86
2022/01/24 08:28:04;;;;;;;13.90;4.18;;;;;;;7.13;100.00;102257.38;5096116;28;20051;-86
2022/01/24 08:30:31;;;;;;;9.50;3.65;;;;;;;7.16;100.00;102252.19;5119873;27;20039;-87
2022/01/24 08:32:59;;;;;;;15.13;5.43;;;;;;;6.89;100.00;102232.19;5117771;27;20047;-88
2022/01/24 08:35:26;;;;;;;16.48;4.68;;;;;;;6.86;100.00;102242.59;5113407;28;20039;-88
2022/01/24 08:37:53;;;;;;;13.55;4.00;;;;;;;6.91;100.00;102243.47;5114066;28;20547;-87
2022/01/24 08:40:24;;;;;;;9.75;3.10;;;;;;;7.34;100.00;102263.50;5115038;27;20039;-87
2022/01/24 08:43:12;;;;;;;14.68;4.68;;;;;;;7.23;100.00;102251.31;5109151;27;20121;-86
2022/01/24 08:45:58;;;;;;;12.23;3.30;;;;;;;7.19;100.00;102238.31;5129799;27;20046;-87
2022/01/24 08:48:25;;;;;;;9.45;3.38;;;;;;;7.16;100.00;102233.09;5124307;27;20039;-86
2022/01/24 08:50:55;;;;;;;14.05;4.68;;;;;;;7.18;100.00;102252.19;5127802;27;20039;-85
2022/01/24 08:53:30;;;;;;;7.95;3.25;;;;;;;7.37;100.00;102261.75;5134102;27;20420;-86
2022/01/24 08:55:59;;;;;;;;;;;;;;;7.70;100.00;102273.06;5119320;27;20043;-86
2022/01/24 08:58:28;;;;;;;10.20;2.88;;;;;;;7.50;100.00;102239.16;5134710;27;20326;-85
2022/01/24 09:00:54;;;;;;;8.98;3.45;;;;;;;7.27;100.00;102227.88;5115307;27;20047;-85
2022/01/24 09:03:22;;;;;;;11.93;3.58;;;;;;;7.41;100.00;102237.44;5129212;27;20454;-85
2022/01/24 09:05:52;;;;;;;14.25;3.28;;;;;;;7.31;100.00;102238.31;5128653;27;20057;-86
2022/01/24 09:08:22;;;;;;;9.45;3.72;;;;;;;7.34;100.00;102264.34;5133818;27;20070;-86
2022/01/24 09:10:51;;;;;;;11.90;4.57;;;;;;;7.19;100.00;102259.16;5133668;27;20107;-87
2022/01/24 09:13:19;;;;;;;11.57;3.50;;;;;;;7.26;100.00;102255.69;5113415;28;20070;-86
2022/01/24 09:15:46;;;;;;;12.77;3.58;;;;;;;7.39;100.00;102280.00;5096402;28;20142;-87
2022/01/24 09:18:12;;;;;;;13.27;3.78;;;;;;;7.37;100.00;102279.13;5127762;27;20387;-90
2022/01/24 09:20:39;;;;;;;10.15;3.20;;;;;;;7.19;100.00;102233.09;5116065;27;20035;-90
2022/01/24 09:23:07;;;;;;;11.25;3.50;;;;;;;6.93;100.00;102210.50;5116159;27;20043;-89
2022/01/24 09:25:35;;;;;;;19.75;4.00;;;;;;;7.25;100.00;102266.97;5115726;27;20053;-87
2022/01/24 09:28:02;;;;;;;21.48;6.00;;;;;;;6.81;100.00;102236.50;5119042;27;20056;-88
2022/01/24 09:30:30;;;;;;;18.38;4.38;;;;;;;6.55;100.00;102184.41;5115963;27;20043;-87
2022/01/24 09:32:56;;;;;;;13.13;4.25;;;;;;;6.94;100.00;102219.16;5133401;27;20060;-88
2022/01/24 09:35:26;;;;;;;14.52;5.40;;;;;;;6.98;100.00;102207.91;5115238;27;20035;-88
2022/01/24 09:37:54;;;;;;;9.20;3.83;;;;;;;7.25;100.00;102216.59;5127031;27;20040;-88
2022/01/24 09:40:22;;;;;;;15.13;4.00;;;;;;;7.49;100.00;102250.47;5115856;27;20046;-88
2022/01/24 09:42:49;;;;;;;13.77;3.67;;;;;;;7.72;100.00;102242.63;5106370;28;20770;-88
2022/01/24 09:45:17;;;;;;;17.08;3.83;;;;;;;7.65;100.00;102245.22;5095436;28;20051;-88
2022/01/24 09:47:45;;;;;;;8.48;2.83;;;;;;;7.71;100.00;102263.47;5117362;27;20047;-88
2022/01/24 09:50:14;;;;;;;11.43;3.88;;;;;;;7.32;100.00;102210.53;5128656;27;20061;-88
2022/01/24 09:52:44;;;;;;;12.77;3.35;;;;;;;7.88;100.00;102260.81;5111028;27;20488;-88
2022/01/24 09:55:13;;;;;;;14.63;3.75;;;;;;;7.97;100.00;102269.53;5119527;27;20054;-88
2022/01/24 09:57:41;;;;;;;11.48;3.75;;;;;;;8.16;100.00;102266.84;5127437;27;20644;-88
2022/01/24 10:00:12;;;;;;;9.65;3.42;;;;;;;8.29;100.00;102252.03;5104215;28;20594;-88
2022/01/24 10:02:39;;;;;;;10.90;3.92;;;;;;;8.29;100.00;102262.47;5121311;28;20052;-85
2022/01/24 10:05:26;;;;;;;10.23;3.10;;;;;;;8.50;100.00;102251.13;5110636;28;20477;-85
2022/01/24 10:08:16;;;;;;;11.82;3.50;;;;;;;8.24;100.00;102243.34;5112263;28;20055;-85
2022/01/24 10:10:52;;;;;;;11.35;3.13;;;;;;;8.33;100.00;102264.19;5105562;28;20036;-85
2022/01/24 10:16:35;;;;;;;9.60;3.50;;;;;;;8.30;100.00;102264.19;5128826;28;20047;-85
2022/01/24 10:19:10;;;;;;;10.23;3.40;;;;;;;8.49;100.00;102251.97;5127020;28;20051;-85
2022/01/24 10:22:03;;;;;;;9.57;3.40;;;;;;;8.48;100.00;102265.91;5108774;28;20051;-85
2022/01/24 10:24:49;;;;;;;9.07;3.30;;;;;;;8.80;100.00;102257.91;5120098;28;20508;-85
2022/01/24 10:27:17;;;;;;;9.30;3.60;;;;;;;8.83;100.00;102265.72;5112784;28;20059;-88
2022/01/24 10:29:54;;;;;;;12.13;3.90;;;;;;;8.90;100.00;102266.56;5100243;28;20454;-87
2022/01/24 10:32:39;;;;;;;9.60;3.17;;;;;;;9.11;100.00;102262.94;5133624;27;20051;-85
2022/01/24 10:35:20;;;;;;;13.93;3.90;;;;;;;8.90;100.00;102270.03;5110131;28;20521;-86
2022/01/24 10:37:50;;;;;;;12.98;4.45;;;;;;;8.69;100.00;102250.16;5111238;27;20058;-88
2022/01/24 10:40:47;;;;;;;12.50;4.25;;;;;;;9.08;100.00;102271.69;5132395;27;20042;-88
2022/01/24 10:43:22;;;;;;;10.90;4.10;;;;;;;9.01;100.00;102253.41;5110699;28;20138;-89
2022/01/24 10:45:50;;;;;;;9.10;3.20;;;;;;;9.24;100.00;102261.97;5117131;27;20047;-89
2022/01/24 10:48:27;;;;;;;8.43;3.03;;;;;;;9.55;100.00;102266.09;5110492;27;20048;-89
2022/01/24 10:51:15;;;;;;;9.85;3.13;;;;;;;9.68;100.00;102275.53;5128846;27;20396;-88
2022/01/24 10:53:55;;;;;;;8.50;2.70;;;;;;;9.36;100.00;102229.63;5120728;27;20045;-89
2022/01/24 10:56:38;;;;;;;9.75;2.92;;;;;;;9.83;100.00;102251.00;5110571;27;20464;-89
2022/01/24 10:59:10;;;;;;;11.52;2.80;;;;;;;9.88;100.00;102268.38;5136509;27;20486;-89
2022/01/24 11:01:39;;;;;;;9.30;3.78;;;;;;;9.61;100.00;102251.19;5103260;27;20036;-89
2022/01/24 11:04:09;;;;;;;10.93;3.30;;;;;;;9.75;100.00;102279.81;5114441;28;20094;-89
2022/01/24 11:06:39;;;;;;;11.63;3.83;;;;;;;9.53;100.00;102260.00;5116694;27;20164;-89
2022/01/24 11:09:09;;;;;;;12.60;4.13;;;;;;;9.84;100.00;102268.41;5130335;27;20043;-89
2022/01/24 11:11:36;;;;;;;14.23;4.10;;;;;;;9.59;100.00;102268.63;5114274;27;20046;-89
2022/01/24 11:14:03;;;;;;;12.98;4.10;;;;;;;9.59;100.00;102265.16;5119967;27;20074;-89
2022/01/24 11:16:30;;;;;;;11.45;3.30;;;;;;;9.95;100.00;102266.56;5128273;27;20396;-89
2022/01/24 11:18:57;;;;;;;16.13;4.60;;;;;;;9.83;100.00;102258.84;5138751;27;20655;-89
2022/01/24 11:21:24;;;;;;;14.13;3.80;;;;;;;10.15;100.00;102268.97;5111271;27;20043;-89
2022/01/24 11:23:51;;;;;;;16.63;4.75;;;;;;;10.06;100.00;102266.44;5119652;27;20049;-89
2022/01/24 11:26:19;;;;;;;17.88;4.28;;;;;;;10.16;100.00;102273.28;5113572;27;20202;-89
2022/01/24 11:28:46;;;;;;;12.10;3.80;;;;;;;10.28;100.00;102280.16;5108678;28;20405;-89
2022/01/24 11:31:19;;;;;;;12.52;3.28;;;;;;;10.19;100.00;102277.63;5105312;28;20039;-87
2022/01/24 11:33:55;;;;;;;15.30;3.95;;;;;;;10.39;100.00;102273.09;5109897;27;20537;-88
2022/01/24 11:36:36;;;;;;;11.13;3.15;;;;;;;10.53;100.00;102277.25;5114491;28;20561;-87
2022/01/24 11:39:04;;;;;;;15.13;3.35;;;;;;;10.23;100.00;102277.59;5098702;28;20073;-87
2022/01/24 11:41:33;;;;;;;8.52;2.58;;;;;;;10.73;100.00;102287.47;5107720;28;20046;-87
2022/01/24 11:44:15;;;;;;;14.93;5.15;;;;;;;10.70;100.00;102284.91;5112720;27;20044;-87
2022/01/24 11:46:48;;;;;;;7.90;2.60;;;;;;;10.73;100.00;102232.44;5127974;27;20055;-87
2022/01/24 11:49:26;;;;;;;10.98;3.38;;;;;;;10.78;100.00;102288.28;5115985;27;20050;-87
2022/01/24 11:52:06;;;;;;;9.60;2.67;;;;;;;11.01;100.00;102288.84;5133114;27;20473;-88
2022/01/24 11:55:06;;;;;;;7.35;2.53;;;;;;;10.89;100.00;102289.00;5116714;27;20090;-87
2022/01/24 11:57:36;;;;;;;8.77;3.00;;;;;;;10.90;100.00;102276.75;5108272;27;20047;-87
2022/01/24 12:00:04;;;;;;;11.90;2.63;;;;;;;10.98;100.00;102286.25;5121947;27;20393;-87
2022/01/24 12:02:56;;;;;;;9.82;3.08;;;;;;;11.09;100.00;102272.97;5115860;27;20054;-88
2022/01/24 12:05:26;;;;;;;12.18;3.92;;;;;;;11.12;100.00;102283.44;5127676;27;20048;-87
2022/01/24 12:07:56;;;;;;;7.40;2.75;;;;;;;11.18;100.00;102290.34;5116331;27;20150;-87
2022/01/24 12:10:23;;;;;;;7.47;2.17;;;;;;;11.29;100.00;102285.78;5109665;27;20049;-85
2022/01/24 12:12:57;;;;;;;11.75;2.75;;;;;;;11.32;100.00;102280.50;5117298;27;20047;-88
2022/01/24 12:15:39;;;;;;;12.35;3.10;;;;;;;11.30;100.00;102291.91;5110850;27;20061;-88
2022/01/24 12:18:07;;;;;;;11.60;2.92;;;;;;;11.21;100.00;102290.28;5136184;27;20130;-89
2022/01/24 12:20:42;;;;;;;10.27;2.78;;;;;;;11.44;100.00;102279.44;5114832;27;20039;-89
2022/01/24 12:23:19;;;;;;;8.43;3.05;;;;;;;11.40;100.00;102276.00;5117461;27;20150;-90
2022/01/24 12:26:07;;;;;;;10.52;2.50;;;;;;;11.65;100.00;102272.97;5111133;27;20492;-90
2022/01/24 12:28:44;;;;;;;10.60;2.42;;;;;;;11.70;100.00;102276.34;5106635;27;20061;-89
2022/01/24 12:31:23;;;;;;;10.40;2.60;;;;;;;11.85;100.00;102267.34;5111077;27;20039;-90
2022/01/24 12:34:07;;;;;;;7.30;2.10;;;;;;;12.00;100.00;102274.09;5106584;27;20055;-90
2022/01/24 12:36:37;;;;;;;7.38;2.00;;;;;;;12.00;100.00;102274.09;5130604;27;20062;-90
2022/01/24 12:39:14;;;;;;;6.93;2.25;;;;;;;11.89;100.00;102268.16;5116237;27;20053;-89
2022/01/24 12:41:47;;;;;;;9.00;2.45;;;;;;;11.88;100.00;102274.28;5113322;27;20481;-89
2022/01/24 12:47:10;;;;;;;7.22;2.33;;;;;;;11.69;100.00;102261.50;5114826;28;20520;-88
2022/01/24 12:49:38;;;;;;;7.40;2.33;;;;;;;11.81;100.00;102272.66;5097752;28;20048;-90
2022/01/24 12:52:12;;;;;;;9.85;2.40;;;;;;;11.99;100.00;102281.97;5123320;27;20047;-90
2022/01/24 12:54:45;;;;;;;7.55;2.50;;;;;;;11.94;100.00;102258.47;5117013;27;20492;-90
2022/01/24 12:57:16;;;;;;;8.13;2.42;;;;;;;11.84;100.00;102273.47;5134954;27;20043;-90
2022/01/24 13:00:04;;;;;;;6.97;2.33;;;;;;;11.87;100.00;102252.44;5134766;27;20047;-91
2022/01/24 13:02:32;;;;;;;7.53;2.00;;;;;;;12.06;100.00;102278.38;5110838;27;20053;-90
2022/01/24 13:05:12;;;;;;;9.75;2.70;;;;;;;12.12;100.00;102291.38;5134506;27;20489;-90
2022/01/24 13:07:40;;;;;;;6.93;2.25;;;;;;;12.28;100.00;102274.41;5114361;27;20043;-89
2022/01/24 13:10:14;;;;;;;6.78;2.33;;;;;;;12.43;100.00;102282.88;5113013;27;20420;-89
2022/01/24 13:12:43;;;;;;;8.15;2.20;;;;;;;12.19;100.00;102250.97;5100038;27;20047;-90
2022/01/24 13:15:25;;;;;;;13.20;3.13;;;;;;;12.14;100.00;102268.56;5125997;27;20467;-90